SCRN weather

Río Negro Airport
Río Negro, Los Lagos Region, Chile

Public forecast

Using degrees Celsius for public forecast. Weather courtesy of forecast.io.

Closest aviation weather report (METAR) to Río Negro Airport

Closest report is El Tepual Airport, 42.6 nm (78.8 km) NW. Retrieved 2019/11/14 05:00 UTC (2 minutes ago):

SCTE 140500Z 00000KT CAVOK 10/09 Q1019 NOSIG

Closest aviation forecast (TAF) to Río Negro Airport

Closest forecast is El Tepual Airport, 42.6 nm (78.8 km) NW. Retrieved 2019-11-14 00:00 UTC (5 hours ago):

TAF SCTE 132212Z 1400/1424 VRB03KT 9999 SCT035 TN09/1412Z TX21/1419Z BECMG 1403/1405 BKN020 TEMPO 1409/1412 3000 BR SCT012 OVC018 BECMG 1415/1417 SCT025 BECMG 1418/1420 16006KT BKN030